This is the latest recevied weather packets stored in our database for station/object BI2QYU-13. If no packets are shown the sender has not sent any weather packets the latest 1 day(s).
| Time | Temp. | Humidity | Pressure | Rain* | Wind** | Luminosity | Snow |
|---|---|---|---|---|---|---|---|
| 1778079751 | 29.44° C | 39% | 1025 hPa | 0 mm | - | - | - |
| 1778077948 | 30° C | 37% | 1025 hPa | 0 mm | - | - | - |
| 1778070736 | 29.44° C | 37% | 1025 hPa | 0 mm | - | - | - |
| 1778068934 | 30.56° C | 33% | 1025 hPa | 0 mm | - | - | - |
| 1778065329 | 29.44° C | 36% | 1025 hPa | 0 mm | - | - | - |
| 1778059919 | 28.33° C | 37% | 1025 hPa | 0 mm | - | - | - |
| 1778058116 | 29.44° C | 35% | 1025 hPa | 0 mm | - | - | - |
| 1778056313 | 30° C | 34% | 1025 hPa | 0 mm | - | - | - |
| 1778052708 | 29.44° C | 34% | 1025 hPa | 0 mm | - | - | - |
| 1778047299 | 30.56° C | 33% | 1025 hPa | 0 mm | - | - | - |
| 1778045497 | 30.56° C | 33% | 1025 hPa | 0 mm | - | - | - |
| 1778043694 | 30.56° C | 34% | 1025 hPa | 0 mm | - | - | - |
| 1778041891 | 30° C | 34% | 1025 hPa | 0 mm | - | - | - |
| 1778038286 | 29.44° C | 35% | 1025 hPa | 0 mm | - | - | - |
| 1778036483 | 29.44° C | 36% | 1025 hPa | 0 mm | - | - | - |
| 1778034681 | 28.89° C | 36% | 1025 hPa | 0 mm | - | - | - |
| 1778031076 | 28.33° C | 38% | 1025 hPa | 0 mm | - | - | - |
| 1778029272 | 26.11° C | 43% | 1025 hPa | 0 mm | - | - | - |
| 1778025667 | 26.67° C | 41% | 1025 hPa | 0 mm | - | - | - |
| 1778020257 | 26.67° C | 40% | 1025 hPa | 0 mm | - | - | - |
| 1778014846 | 26.67° C | 38% | 1025 hPa | 0 mm | - | - | - |
| 1778009438 | 27.22° C | 37% | 1025 hPa | 0 mm | - | - | - |
| 1777996818 | 28.89° C | 33% | 1025 hPa | 0 mm | - | - | - |
* Rain latest hour (hover to see other rain measurements)
** Current wind speed in m/s (hover to see current wind gust speed)